| time (UTC) | temp F | wind direction | speed knots | gust knots | rain 1hr in | rain 24hr in | rain mn in | humidity % | barometer mb |
| 20260507073217 | 48 | 302 | 0.9 | 1.7 | 0.00 | 2.68 | 0.07 | 95 | 1014.3 |
| 20260507071712 | 47 | 204 | 0.9 | 2.6 | 0.00 | 2.68 | 0.07 | 95 | 1014.3 |
| 20260507070222 | 47 | 9 | 0.0 | 2.6 | 0.00 | 2.68 | 0.07 | 95 | 1014.0 |
| 20260507064721 | 46 | 36 | 0.9 | 2.6 | 0.00 | 2.68 | 0.07 | 97 | 1013.7 |
| 20260507063218 | 45 | 307 | 0.0 | 0.0 | 0.00 | 2.68 | 0.07 | 96 | 1013.7 |
| 20260507061717 | 45 | 307 | 0.0 | 0.0 | 0.00 | 2.68 | 0.07 | 97 | 1013.7 |
| 20260507060212 | 44 | 319 | 0.0 | 0.0 | 0.00 | 3.03 | 0.07 | 97 | 1013.7 |
| 20260507054728 | 43 | 319 | 0.0 | 1.7 | 0.00 | 3.03 | 0.07 | 96 | 1013.6 |
| 20260507053229 | 43 | 36 | 0.0 | 4.3 | 0.00 | 3.03 | 0.07 | 97 | 1013.5 |
| 20260507051722 | 42 | 50 | 2.6 | 5.2 | 0.00 | 3.03 | 0.07 | 96 | 1013.2 |
| 20260507050218 | 42 | 51 | 1.7 | 3.5 | 0.00 | 3.19 | 0.07 | 96 | 1013.2 |
| 20260507044719 | 42 | 31 | 0.9 | 4.3 | 0.00 | 3.19 | 0.07 | 96 | 1013.1 |
| 20260507043215 | 42 | 93 | 0.9 | 3.5 | 0.00 | 3.19 | 0.07 | 96 | 1013.1 |
| 20260507041717 | 42 | 49 | 0.9 | 3.5 | 0.08 | 3.19 | 0.07 | 96 | 1012.8 |
| 20260507040211 | 42 | 35 | 2.6 | 5.2 | 0.08 | 3.19 | 0.07 | 96 | 1012.8 |
| 20260507034725 | 42 | 55 | 2.6 | 5.2 | 0.08 | 3.19 | 0.07 | 96 | 1012.9 |
| 20260507033224 | 43 | 52 | 2.6 | 3.5 | 0.08 | 3.19 | 0.07 | 96 | 1013.1 |
| 20260507031719 | 43 | 27 | 0.9 | 1.7 | 0.04 | 3.11 | 0.05 | 95 | 1013.2 |
| 20260507030215 | 43 | 67 | 1.7 | 4.3 | 0.12 | 3.11 | 0.05 | 96 | 1012.9 |
| 20260507024730 | 44 | 66 | 2.6 | 3.5 | 0.16 | 3.11 | 0.05 | 96 | 1013.1 |
| 20260507023226 | 44 | 12 | 0.9 | 2.6 | 0.20 | 3.11 | 0.05 | 96 | 1012.9 |
| 20260507021722 | 44 | 293 | 0.0 | 0.0 | 0.16 | 3.07 | 0.04 | 96 | 1013.1 |
| 20260507020219 | 44 | 81 | 0.0 | 0.0 | 0.08 | 3.15 | 0.02 | 96 | 1012.8 |
| 20260507014713 | 44 | 81 | 0.0 | 1.7 | 0.04 | 3.11 | 0.01 | 96 | 1012.4 |
| 20260507013214 | 44 | 81 | 0.0 | 1.7 | 0.00 | 3.07 | 0.00 | 96 | 1012.3 |
| 20260507011731 | 44 | 58 | 1.7 | 4.3 | 0.00 | 3.07 | 0.00 | 96 | 1011.9 |
| 20260507004713 | 44 | 60 | 0.0 | 3.5 | 0.00 | 3.27 | 0.00 | 96 | 1012.1 |
| 20260507003226 | 44 | 51 | 2.6 | 4.3 | 0.00 | 3.27 | 0.00 | 96 | 1012.4 |
| 20260507001728 | 44 | 65 | 0.0 | 1.7 | 0.00 | 3.27 | 0.00 | 96 | 1012.4 |
| 20260506234725 | 44 | 56 | 1.7 | 4.3 | 0.00 | 3.43 | 0.00 | 97 | 1012.4 |
| 20260506233227 | 43 | 59 | 2.6 | 3.5 | 0.00 | 3.43 | 0.00 | 97 | 1012.4 |
| 20260506231730 | 43 | 77 | 0.9 | 3.5 | 0.00 | 3.43 | 0.00 | 96 | 1012.4 |
| 20260506230211 | 44 | 70 | 1.7 | 2.6 | 0.00 | 3.43 | 0.00 | 96 | 1012.4 |
| 20260506224717 | 44 | 345 | 0.0 | 4.3 | 0.00 | 3.43 | 0.00 | 96 | 1012.3 |
| 20260506223218 | 44 | 37 | 3.5 | 5.2 | 0.00 | 3.43 | 0.00 | 96 | 1012.2 |
| 20260506221720 | 44 | 62 | 0.9 | 3.5 | 0.04 | 3.43 | 0.00 | 96 | 1012.4 |
| 20260506220225 | 44 | 53 | 4.3 | 9.6 | 0.04 | 3.62 | 0.87 | 95 | 1012.3 |
| 20260506214724 | 44 | 42 | 2.6 | 5.2 | 0.04 | 3.62 | 0.87 | 95 | 1012.2 |
| 20260506213209 | 44 | 74 | 2.6 | 4.3 | 0.04 | 3.62 | 0.87 | 95 | 1012.5 |
| 20260506211710 | 44 | 84 | 1.7 | 5.2 | 0.00 | 3.58 | 0.86 | 95 | 1012.5 |
| 20260506210211 | 44 | 50 | 3.5 | 8.7 | 0.00 | 3.90 | 0.86 | 95 | 1012.4 |
| 20260506204717 | 44 | 42 | 3.5 | 7.8 | 0.00 | 3.90 | 0.86 | 95 | 1012.4 |
| 20260506203218 | 44 | 58 | 2.6 | 7.0 | 0.00 | 3.90 | 0.86 | 95 | 1012.5 |
| 20260506201722 | 44 | 57 | 3.5 | 6.1 | 0.00 | 3.90 | 0.86 | 95 | 1012.5 |
| 20260506200223 | 44 | 39 | 1.7 | 6.1 | 0.00 | 3.94 | 0.86 | 95 | 1012.7 |
| 20260506194724 | 44 | 288 | 3.5 | 9.6 | 0.00 | 3.94 | 0.86 | 95 | 1012.5 |
| 20260506193210 | 44 | 44 | 3.5 | 8.7 | 0.00 | 3.94 | 0.86 | 95 | 1011.9 |
| 20260506191710 | 44 | 65 | 4.3 | 6.1 | 0.00 | 3.94 | 0.86 | 94 | 1011.7 |
| 20260506190211 | 45 | 89 | 2.6 | 7.0 | 0.04 | 4.02 | 0.86 | 94 | 1011.7 |
| 20260506184713 | 44 | 49 | 6.1 | 9.6 | 0.04 | 4.02 | 0.86 | 94 | 1011.1 |
| 20260506183215 | 44 | 42 | 5.2 | 10.4 | 0.12 | 4.02 | 0.86 | 93 | 1011.0 |
| 20260506181720 | 44 | 55 | 7.8 | 11.3 | 0.24 | 4.02 | 0.86 | 94 | 1011.0 |
| 20260506180219 | 44 | 342 | 1.7 | 4.3 | 0.39 | 3.98 | 0.85 | 95 | 1010.9 |
| 20260506174716 | 44 | 80 | 4.3 | 7.8 | 0.51 | 3.98 | 0.85 | 95 | 1010.6 |
| 20260506173221 | 44 | 28 | 3.5 | 7.8 | 0.87 | 3.90 | 0.83 | 95 | 1010.5 |
| 20260506171721 | 44 | 20 | 3.5 | 7.8 | 1.14 | 3.78 | 0.80 | 93 | 1011.0 |
| 20260506170222 | 44 | 14 | 1.7 | 8.7 | 1.42 | 3.58 | 0.75 | 92 | 1010.8 |
| 20260506164726 | 44 | 63 | 0.9 | 16.5 | 1.34 | 3.46 | 0.72 | 90 | 1010.3 |
| 20260506163228 | 46 | 142 | 0.9 | 11.3 | 0.91 | 3.03 | 0.61 | 90 | 1010.6 |
| 20260506161712 | 49 | 160 | 4.3 | 13.0 | 0.51 | 2.60 | 0.50 | 91 | 1009.4 |
| 20260506160213 | 50 | 15 | 4.3 | 9.6 | 0.12 | 2.17 | 0.38 | 91 | 1008.8 |
| 20260506154712 | 50 | 81 | 3.5 | 10.4 | 0.12 | 2.17 | 0.38 | 90 | 1008.7 |
| 20260506153216 | 50 | 136 | 3.5 | 7.0 | 0.12 | 2.17 | 0.38 | 89 | 1008.8 |
| 20260506151717 | 52 | 202 | 1.7 | 7.0 | 0.08 | 2.13 | 0.37 | 82 | 1009.0 |
| 20260506150222 | 54 | 18 | 3.5 | 7.0 | 0.00 | 2.17 | 0.35 | 83 | 1008.9 |
| 20260506144719 | 54 | 350 | 0.9 | 6.1 | 0.00 | 2.17 | 0.35 | 81 | 1009.2 |
| 20260506143219 | 54 | 340 | 1.7 | 6.1 | 0.00 | 2.17 | 0.35 | 83 | 1009.0 |
| 20260506141722 | 54 | 348 | 0.9 | 5.2 | 0.00 | 2.17 | 0.35 | 82 | 1009.4 |
| 20260506140222 | 55 | 78 | 2.6 | 5.2 | 0.00 | 2.17 | 0.35 | 84 | 1009.8 |
| 20260506134724 | 53 | 346 | 0.9 | 4.3 | 0.00 | 2.17 | 0.35 | 84 | 1010.1 |
| 20260506133228 | 54 | 71 | 3.5 | 6.1 | 0.00 | 2.17 | 0.35 | 82 | 1010.3 |
| 20260506131729 | 55 | 207 | 0.9 | 7.0 | 0.00 | 2.17 | 0.35 | 85 | 1010.3 |
| 20260506130233 | 53 | 279 | 4.3 | 10.4 | 0.04 | 2.17 | 0.35 | 88 | 1010.3 |
| 20260506124713 | 52 | 183 | 0.9 | 4.3 | 0.04 | 2.17 | 0.35 | 88 | 1010.2 |
| 20260506123213 | 51 | 331 | 0.0 | 5.2 | 0.04 | 2.17 | 0.35 | 90 | 1010.1 |
| 20260506121718 | 52 | 346 | 0.0 | 7.0 | 0.04 | 2.17 | 0.35 | 86 | 1010.1 |
| 20260506120225 | 53 | 302 | 0.0 | 3.5 | 0.00 | 2.20 | 0.34 | 88 | 1010.0 |
| 20260506114724 | 52 | 286 | 1.7 | 2.6 | 0.00 | 2.20 | 0.34 | 88 | 1010.0 |
| 20260506113229 | 51 | 74 | 0.9 | 2.6 | 0.00 | 2.20 | 0.34 | 89 | 1010.1 |
| 20260506111710 | 51 | 355 | 2.6 | 5.2 | 0.00 | 2.20 | 0.34 | 88 | 1010.3 |
| 20260506110212 | 50 | 74 | 2.6 | 7.0 | 0.00 | 2.24 | 0.34 | 91 | 1010.7 |
| 20260506104712 | 49 | 342 | 1.7 | 6.1 | 0.00 | 2.24 | 0.34 | 92 | 1010.8 |
| 20260506103211 | 48 | 44 | 2.6 | 5.2 | 0.04 | 2.24 | 0.34 | 93 | 1010.6 |
| 20260506101715 | 48 | 54 | 3.5 | 7.8 | 0.12 | 2.24 | 0.34 | 91 | 1010.9 |
| 20260506100214 | 47 | 68 | 3.5 | 9.6 | 0.20 | 2.36 | 0.34 | 92 | 1010.9 |
| 20260506094720 | 47 | 83 | 4.3 | 10.4 | 0.31 | 2.36 | 0.34 | 93 | 1010.7 |
| 20260506093220 | 46 | 214 | 1.7 | 4.3 | 0.28 | 2.32 | 0.33 | 94 | 1010.8 |
| 20260506091722 | 47 | 64 | 0.9 | 7.0 | 0.20 | 2.24 | 0.31 | 92 | 1010.7 |
| 20260506090226 | 47 | 76 | 4.3 | 8.7 | 0.12 | 2.68 | 0.29 | 88 | 1010.1 |
| 20260506084727 | 48 | 91 | 3.5 | 12.2 | 0.00 | 2.56 | 0.26 | 85 | 1010.1 |
| 20260506083211 | 49 | 118 | 2.6 | 10.4 | 0.00 | 2.56 | 0.26 | 86 | 1010.0 |
| 20260506081712 | 49 | 136 | 2.6 | 7.8 | 0.00 | 2.56 | 0.26 | 85 | 1010.0 |
| 20260506080212 | 49 | 69 | 5.2 | 9.6 | 0.00 | 2.80 | 0.26 | 84 | 1009.8 |